sensor_id;sensor_type;location;lat;lon;timestamp;P1;durP1;ratioP1;P2;durP2;ratioP2
74503;SDS011;62988;55.776;37.544;2023-03-16T00:01:55;16.52;;;8.25;;
74503;SDS011;62988;55.776;37.544;2023-03-16T00:04:20;18.00;;;9.15;;
74503;SDS011;62988;55.776;37.544;2023-03-16T00:06:45;17.77;;;8.83;;
74503;SDS011;62988;55.776;37.544;2023-03-16T00:09:11;17.80;;;9.10;;
74503;SDS011;62988;55.776;37.544;2023-03-16T00:11:37;13.82;;;8.73;;
74503;SDS011;62988;55.776;37.544;2023-03-16T00:14:02;16.10;;;9.23;;
74503;SDS011;62988;55.776;37.544;2023-03-16T00:16:30;14.25;;;9.27;;
74503;SDS011;62988;55.776;37.544;2023-03-16T00:18:56;15.63;;;9.50;;
74503;SDS011;62988;55.776;37.544;2023-03-16T00:21:23;13.02;;;8.02;;
74503;SDS011;62988;55.776;37.544;2023-03-16T00:23:48;14.45;;;8.25;;
74503;SDS011;62988;55.776;37.544;2023-03-16T00:26:14;14.75;;;9.25;;
74503;SDS011;62988;55.776;37.544;2023-03-16T00:28:39;16.60;;;9.20;;
74503;SDS011;62988;55.776;37.544;2023-03-16T00:31:08;14.63;;;9.43;;
74503;SDS011;62988;55.776;37.544;2023-03-16T00:33:36;18.55;;;8.63;;
74503;SDS011;62988;55.776;37.544;2023-03-16T00:36:02;13.95;;;7.97;;
74503;SDS011;62988;55.776;37.544;2023-03-16T00:38:31;14.35;;;9.25;;
74503;SDS011;62988;55.776;37.544;2023-03-16T00:40:59;13.90;;;8.90;;
74503;SDS011;62988;55.776;37.544;2023-03-16T00:43:24;20.33;;;10.52;;
74503;SDS011;62988;55.776;37.544;2023-03-16T00:45:56;20.98;;;10.30;;
74503;SDS011;62988;55.776;37.544;2023-03-16T00:48:21;15.02;;;8.98;;
74503;SDS011;62988;55.776;37.544;2023-03-16T00:50:48;16.63;;;9.60;;
74503;SDS011;62988;55.776;37.544;2023-03-16T00:53:13;14.05;;;8.18;;
74503;SDS011;62988;55.776;37.544;2023-03-16T00:55:39;17.83;;;9.60;;
74503;SDS011;62988;55.776;37.544;2023-03-16T00:58:08;18.45;;;10.15;;
74503;SDS011;62988;55.776;37.544;2023-03-16T01:00:33;20.33;;;10.65;;
74503;SDS011;62988;55.776;37.544;2023-03-16T01:03:02;17.35;;;9.85;;
74503;SDS011;62988;55.776;37.544;2023-03-16T01:05:28;15.57;;;9.70;;
74503;SDS011;62988;55.776;37.544;2023-03-16T01:07:56;17.67;;;9.63;;
74503;SDS011;62988;55.776;37.544;2023-03-16T01:10:21;16.23;;;10.35;;
74503;SDS011;62988;55.776;37.544;2023-03-16T01:12:46;12.37;;;6.67;;
74503;SDS011;62988;55.776;37.544;2023-03-16T01:15:12;16.90;;;10.53;;
74503;SDS011;62988;55.776;37.544;2023-03-16T01:17:40;17.20;;;10.45;;
74503;SDS011;62988;55.776;37.544;2023-03-16T01:20:05;17.15;;;9.35;;
74503;SDS011;62988;55.776;37.544;2023-03-16T01:22:36;13.30;;;8.75;;
74503;SDS011;62988;55.776;37.544;2023-03-16T01:25:01;18.92;;;10.23;;
74503;SDS011;62988;55.776;37.544;2023-03-16T01:27:26;14.07;;;9.47;;
74503;SDS011;62988;55.776;37.544;2023-03-16T01:29:52;18.80;;;10.83;;
74503;SDS011;62988;55.776;37.544;2023-03-16T01:32:17;17.33;;;10.93;;
74503;SDS011;62988;55.776;37.544;2023-03-16T01:34:45;18.85;;;11.35;;
74503;SDS011;62988;55.776;37.544;2023-03-16T01:37:10;17.83;;;10.73;;
74503;SDS011;62988;55.776;37.544;2023-03-16T01:39:36;14.57;;;9.67;;
74503;SDS011;62988;55.776;37.544;2023-03-16T01:42:01;19.00;;;9.67;;
74503;SDS011;62988;55.776;37.544;2023-03-16T01:44:27;18.70;;;11.35;;
74503;SDS011;62988;55.776;37.544;2023-03-16T01:46:55;15.82;;;10.05;;
74503;SDS011;62988;55.776;37.544;2023-03-16T01:49:24;19.30;;;10.90;;
74503;SDS011;62988;55.776;37.544;2023-03-16T01:54:34;13.85;;;9.48;;
74503;SDS011;62988;55.776;37.544;2023-03-16T01:57:10;15.27;;;8.65;;
74503;SDS011;62988;55.776;37.544;2023-03-16T02:02:05;16.73;;;9.57;;
74503;SDS011;62988;55.776;37.544;2023-03-16T02:04:35;17.98;;;7.88;;
74503;SDS011;62988;55.776;37.544;2023-03-16T02:07:02;14.15;;;9.68;;
74503;SDS011;62988;55.776;37.544;2023-03-16T02:09:29;17.63;;;9.32;;
74503;SDS011;62988;55.776;37.544;2023-03-16T02:11:56;18.88;;;10.23;;
74503;SDS011;62988;55.776;37.544;2023-03-16T02:14:22;15.25;;;9.68;;
74503;SDS011;62988;55.776;37.544;2023-03-16T02:16:49;17.80;;;9.43;;
74503;SDS011;62988;55.776;37.544;2023-03-16T02:19:27;14.50;;;9.20;;
74503;SDS011;62988;55.776;37.544;2023-03-16T02:21:58;16.08;;;10.18;;
74503;SDS011;62988;55.776;37.544;2023-03-16T02:24:26;13.50;;;9.00;;
74503;SDS011;62988;55.776;37.544;2023-03-16T02:26:52;14.88;;;8.25;;
74503;SDS011;62988;55.776;37.544;2023-03-16T02:29:22;12.80;;;6.97;;
74503;SDS011;62988;55.776;37.544;2023-03-16T02:31:52;14.05;;;8.98;;
74503;SDS011;62988;55.776;37.544;2023-03-16T02:34:18;18.33;;;9.63;;
74503;SDS011;62988;55.776;37.544;2023-03-16T02:36:44;14.63;;;8.88;;
74503;SDS011;62988;55.776;37.544;2023-03-16T02:39:10;14.98;;;9.18;;
74503;SDS011;62988;55.776;37.544;2023-03-16T02:41:36;14.13;;;8.55;;
74503;SDS011;62988;55.776;37.544;2023-03-16T02:44:07;16.92;;;8.48;;
74503;SDS011;62988;55.776;37.544;2023-03-16T02:46:38;15.77;;;8.93;;
74503;SDS011;62988;55.776;37.544;2023-03-16T02:49:05;14.30;;;9.25;;
74503;SDS011;62988;55.776;37.544;2023-03-16T02:51:32;16.50;;;8.38;;
74503;SDS011;62988;55.776;37.544;2023-03-16T02:53:57;14.65;;;8.77;;
74503;SDS011;62988;55.776;37.544;2023-03-16T02:56:23;15.65;;;9.07;;
74503;SDS011;62988;55.776;37.544;2023-03-16T02:58:48;16.97;;;8.90;;
74503;SDS011;62988;55.776;37.544;2023-03-16T03:01:13;14.17;;;9.03;;
74503;SDS011;62988;55.776;37.544;2023-03-16T03:03:39;14.38;;;8.55;;
74503;SDS011;62988;55.776;37.544;2023-03-16T03:06:04;13.43;;;8.97;;
74503;SDS011;62988;55.776;37.544;2023-03-16T03:08:30;13.23;;;8.57;;
74503;SDS011;62988;55.776;37.544;2023-03-16T03:10:57;16.52;;;8.48;;
74503;SDS011;62988;55.776;37.544;2023-03-16T03:13:22;13.35;;;8.15;;
74503;SDS011;62988;55.776;37.544;2023-03-16T03:15:48;18.73;;;8.65;;
74503;SDS011;62988;55.776;37.544;2023-03-16T03:18:13;16.25;;;9.43;;
74503;SDS011;62988;55.776;37.544;2023-03-16T03:20:39;14.40;;;8.70;;
74503;SDS011;62988;55.776;37.544;2023-03-16T03:23:04;17.23;;;8.73;;
74503;SDS011;62988;55.776;37.544;2023-03-16T03:25:29;16.73;;;8.67;;
74503;SDS011;62988;55.776;37.544;2023-03-16T03:27:58;18.98;;;9.07;;
74503;SDS011;62988;55.776;37.544;2023-03-16T03:30:25;15.50;;;9.35;;
74503;SDS011;62988;55.776;37.544;2023-03-16T03:32:50;18.45;;;8.85;;
74503;SDS011;62988;55.776;37.544;2023-03-16T03:35:16;19.45;;;8.32;;
74503;SDS011;62988;55.776;37.544;2023-03-16T03:37:42;16.40;;;8.95;;
74503;SDS011;62988;55.776;37.544;2023-03-16T03:40:09;15.68;;;9.63;;
74503;SDS011;62988;55.776;37.544;2023-03-16T03:42:35;14.02;;;8.48;;
74503;SDS011;62988;55.776;37.544;2023-03-16T03:45:01;17.15;;;8.27;;
74503;SDS011;62988;55.776;37.544;2023-03-16T03:47:26;24.63;;;9.03;;
74503;SDS011;62988;55.776;37.544;2023-03-16T03:49:51;23.30;;;9.50;;
74503;SDS011;62988;55.776;37.544;2023-03-16T03:52:17;20.15;;;8.60;;
74503;SDS011;62988;55.776;37.544;2023-03-16T03:54:42;21.90;;;9.68;;
74503;SDS011;62988;55.776;37.544;2023-03-16T03:57:08;20.20;;;9.23;;
74503;SDS011;62988;55.776;37.544;2023-03-16T03:59:33;14.00;;;8.85;;
74503;SDS011;62988;55.776;37.544;2023-03-16T04:01:59;14.60;;;8.75;;
74503;SDS011;62988;55.776;37.544;2023-03-16T04:04:24;18.55;;;9.05;;
74503;SDS011;62988;55.776;37.544;2023-03-16T04:06:50;17.52;;;9.00;;
74503;SDS011;62988;55.776;37.544;2023-03-16T04:09:15;12.70;;;7.80;;
74503;SDS011;62988;55.776;37.544;2023-03-16T04:11:41;15.48;;;8.45;;
74503;SDS011;62988;55.776;37.544;2023-03-16T04:14:06;15.88;;;8.18;;
74503;SDS011;62988;55.776;37.544;2023-03-16T04:16:32;15.40;;;8.07;;
74503;SDS011;62988;55.776;37.544;2023-03-16T04:18:58;18.20;;;9.15;;
74503;SDS011;62988;55.776;37.544;2023-03-16T04:21:23;18.77;;;8.68;;
74503;SDS011;62988;55.776;37.544;2023-03-16T04:23:49;18.20;;;8.82;;
74503;SDS011;62988;55.776;37.544;2023-03-16T04:26:18;16.13;;;8.23;;
74503;SDS011;62988;55.776;37.544;2023-03-16T04:28:43;13.77;;;8.30;;
74503;SDS011;62988;55.776;37.544;2023-03-16T04:31:09;21.98;;;8.95;;
74503;SDS011;62988;55.776;37.544;2023-03-16T04:33:35;16.85;;;8.80;;
74503;SDS011;62988;55.776;37.544;2023-03-16T04:36:01;13.68;;;8.07;;
74503;SDS011;62988;55.776;37.544;2023-03-16T04:38:27;16.48;;;8.63;;
74503;SDS011;62988;55.776;37.544;2023-03-16T04:40:52;15.88;;;9.13;;
74503;SDS011;62988;55.776;37.544;2023-03-16T04:43:18;12.88;;;8.50;;
74503;SDS011;62988;55.776;37.544;2023-03-16T04:45:43;13.30;;;8.07;;
74503;SDS011;62988;55.776;37.544;2023-03-16T04:48:08;14.90;;;8.07;;
74503;SDS011;62988;55.776;37.544;2023-03-16T04:50:34;14.68;;;8.07;;
74503;SDS011;62988;55.776;37.544;2023-03-16T04:53:00;16.33;;;8.45;;
74503;SDS011;62988;55.776;37.544;2023-03-16T04:55:25;14.20;;;8.52;;
74503;SDS011;62988;55.776;37.544;2023-03-16T04:57:50;15.90;;;9.23;;
74503;SDS011;62988;55.776;37.544;2023-03-16T05:00:16;13.13;;;7.30;;
74503;SDS011;62988;55.776;37.544;2023-03-16T05:02:43;18.40;;;8.35;;
74503;SDS011;62988;55.776;37.544;2023-03-16T05:05:11;16.17;;;8.40;;
74503;SDS011;62988;55.776;37.544;2023-03-16T05:07:37;16.75;;;8.38;;
74503;SDS011;62988;55.776;37.544;2023-03-16T05:10:03;17.85;;;9.18;;
74503;SDS011;62988;55.776;37.544;2023-03-16T05:12:28;14.82;;;9.40;;
74503;SDS011;62988;55.776;37.544;2023-03-16T05:14:54;17.38;;;9.35;;
74503;SDS011;62988;55.776;37.544;2023-03-16T05:17:19;17.30;;;8.35;;
74503;SDS011;62988;55.776;37.544;2023-03-16T05:19:46;20.40;;;8.63;;
74503;SDS011;62988;55.776;37.544;2023-03-16T05:22:11;23.40;;;9.40;;
74503;SDS011;62988;55.776;37.544;2023-03-16T05:24:37;16.33;;;7.85;;
74503;SDS011;62988;55.776;37.544;2023-03-16T05:27:02;15.15;;;7.85;;
74503;SDS011;62988;55.776;37.544;2023-03-16T05:29:28;18.65;;;8.90;;
74503;SDS011;62988;55.776;37.544;2023-03-16T05:31:55;9.98;;;5.10;;
74503;SDS011;62988;55.776;37.544;2023-03-16T05:34:21;12.55;;;7.72;;
74503;SDS011;62988;55.776;37.544;2023-03-16T05:36:46;17.92;;;8.63;;
74503;SDS011;62988;55.776;37.544;2023-03-16T05:39:12;15.30;;;8.40;;
74503;SDS011;62988;55.776;37.544;2023-03-16T05:41:38;16.40;;;7.93;;
74503;SDS011;62988;55.776;37.544;2023-03-16T05:44:06;18.55;;;8.60;;
74503;SDS011;62988;55.776;37.544;2023-03-16T05:46:32;15.52;;;8.38;;
74503;SDS011;62988;55.776;37.544;2023-03-16T05:48:57;22.13;;;8.60;;
74503;SDS011;62988;55.776;37.544;2023-03-16T05:51:23;20.35;;;8.70;;
74503;SDS011;62988;55.776;37.544;2023-03-16T05:53:50;19.35;;;9.63;;
74503;SDS011;62988;55.776;37.544;2023-03-16T05:56:19;15.40;;;8.95;;
74503;SDS011;62988;55.776;37.544;2023-03-16T05:58:47;17.27;;;9.15;;
74503;SDS011;62988;55.776;37.544;2023-03-16T06:01:12;14.80;;;7.57;;
74503;SDS011;62988;55.776;37.544;2023-03-16T06:03:39;15.50;;;9.18;;
74503;SDS011;62988;55.776;37.544;2023-03-16T06:06:05;14.35;;;8.32;;
74503;SDS011;62988;55.776;37.544;2023-03-16T06:08:31;20.80;;;8.30;;
74503;SDS011;62988;55.776;37.544;2023-03-16T06:10:56;12.50;;;7.17;;
74503;SDS011;62988;55.776;37.544;2023-03-16T06:13:21;17.03;;;8.70;;
74503;SDS011;62988;55.776;37.544;2023-03-16T06:15:48;14.77;;;7.47;;
74503;SDS011;62988;55.776;37.544;2023-03-16T06:18:13;17.00;;;8.55;;
74503;SDS011;62988;55.776;37.544;2023-03-16T06:20:38;20.97;;;8.30;;
74503;SDS011;62988;55.776;37.544;2023-03-16T06:23:04;13.53;;;7.77;;
74503;SDS011;62988;55.776;37.544;2023-03-16T06:25:29;15.05;;;8.15;;
74503;SDS011;62988;55.776;37.544;2023-03-16T06:27:55;17.77;;;10.32;;
74503;SDS011;62988;55.776;37.544;2023-03-16T06:30:20;14.65;;;8.18;;
74503;SDS011;62988;55.776;37.544;2023-03-16T06:32:45;14.68;;;8.38;;
74503;SDS011;62988;55.776;37.544;2023-03-16T06:35:11;16.73;;;9.00;;
74503;SDS011;62988;55.776;37.544;2023-03-16T06:37:36;13.95;;;8.80;;
74503;SDS011;62988;55.776;37.544;2023-03-16T06:40:02;18.43;;;8.97;;
74503;SDS011;62988;55.776;37.544;2023-03-16T06:42:28;19.13;;;9.10;;
74503;SDS011;62988;55.776;37.544;2023-03-16T06:44:53;17.60;;;9.52;;
74503;SDS011;62988;55.776;37.544;2023-03-16T06:47:19;18.98;;;8.50;;
74503;SDS011;62988;55.776;37.544;2023-03-16T06:49:44;15.73;;;8.63;;
74503;SDS011;62988;55.776;37.544;2023-03-16T06:52:11;15.52;;;8.52;;
74503;SDS011;62988;55.776;37.544;2023-03-16T06:54:37;17.00;;;8.93;;
74503;SDS011;62988;55.776;37.544;2023-03-16T06:57:03;18.23;;;8.80;;
74503;SDS011;62988;55.776;37.544;2023-03-16T06:59:29;15.65;;;9.23;;
74503;SDS011;62988;55.776;37.544;2023-03-16T07:01:54;15.95;;;8.65;;
74503;SDS011;62988;55.776;37.544;2023-03-16T07:04:19;16.57;;;9.27;;
74503;SDS011;62988;55.776;37.544;2023-03-16T07:06:45;22.73;;;11.45;;
74503;SDS011;62988;55.776;37.544;2023-03-16T07:09:11;17.88;;;9.40;;
74503;SDS011;62988;55.776;37.544;2023-03-16T07:11:36;16.17;;;8.80;;
74503;SDS011;62988;55.776;37.544;2023-03-16T07:14:02;17.65;;;9.90;;
74503;SDS011;62988;55.776;37.544;2023-03-16T07:16:27;16.93;;;8.63;;
74503;SDS011;62988;55.776;37.544;2023-03-16T07:18:53;14.83;;;9.07;;
74503;SDS011;62988;55.776;37.544;2023-03-16T07:21:18;16.58;;;8.93;;
74503;SDS011;62988;55.776;37.544;2023-03-16T07:23:44;14.70;;;7.30;;
74503;SDS011;62988;55.776;37.544;2023-03-16T07:26:09;17.20;;;8.80;;
74503;SDS011;62988;55.776;37.544;2023-03-16T07:28:36;16.33;;;8.90;;
74503;SDS011;62988;55.776;37.544;2023-03-16T07:31:02;21.23;;;8.98;;
74503;SDS011;62988;55.776;37.544;2023-03-16T07:33:27;19.00;;;9.07;;
74503;SDS011;62988;55.776;37.544;2023-03-16T07:35:52;15.38;;;9.27;;
74503;SDS011;62988;55.776;37.544;2023-03-16T07:38:18;17.17;;;8.33;;
74503;SDS011;62988;55.776;37.544;2023-03-16T07:40:44;17.48;;;9.40;;
74503;SDS011;62988;55.776;37.544;2023-03-16T07:43:09;13.05;;;7.18;;
74503;SDS011;62988;55.776;37.544;2023-03-16T07:45:34;16.10;;;8.63;;
74503;SDS011;62988;55.776;37.544;2023-03-16T07:48:00;15.30;;;8.80;;
74503;SDS011;62988;55.776;37.544;2023-03-16T07:50:26;14.40;;;8.90;;
74503;SDS011;62988;55.776;37.544;2023-03-16T07:52:51;15.18;;;9.07;;
74503;SDS011;62988;55.776;37.544;2023-03-16T07:55:16;15.35;;;8.77;;
74503;SDS011;62988;55.776;37.544;2023-03-16T07:57:42;13.63;;;8.55;;
74503;SDS011;62988;55.776;37.544;2023-03-16T08:00:12;17.55;;;8.80;;
74503;SDS011;62988;55.776;37.544;2023-03-16T08:02:38;14.65;;;8.93;;
74503;SDS011;62988;55.776;37.544;2023-03-16T08:05:03;15.45;;;8.93;;
74503;SDS011;62988;55.776;37.544;2023-03-16T08:07:29;18.27;;;9.90;;
74503;SDS011;62988;55.776;37.544;2023-03-16T08:09:56;17.23;;;10.15;;
74503;SDS011;62988;55.776;37.544;2023-03-16T08:12:21;18.55;;;9.32;;
74503;SDS011;62988;55.776;37.544;2023-03-16T08:14:46;16.33;;;9.88;;
74503;SDS011;62988;55.776;37.544;2023-03-16T08:17:12;16.90;;;9.67;;
74503;SDS011;62988;55.776;37.544;2023-03-16T08:19:37;19.53;;;10.63;;
74503;SDS011;62988;55.776;37.544;2023-03-16T08:22:03;19.30;;;9.63;;
74503;SDS011;62988;55.776;37.544;2023-03-16T08:24:29;18.20;;;10.88;;
74503;SDS011;62988;55.776;37.544;2023-03-16T08:26:55;19.00;;;9.15;;
74503;SDS011;62988;55.776;37.544;2023-03-16T08:29:21;15.45;;;9.40;;
74503;SDS011;62988;55.776;37.544;2023-03-16T08:31:47;13.95;;;8.30;;
74503;SDS011;62988;55.776;37.544;2023-03-16T08:34:13;18.75;;;10.80;;
74503;SDS011;62988;55.776;37.544;2023-03-16T08:36:40;16.17;;;10.23;;
74503;SDS011;62988;55.776;37.544;2023-03-16T08:39:07;20.35;;;10.07;;
74503;SDS011;62988;55.776;37.544;2023-03-16T08:41:33;16.33;;;9.80;;
74503;SDS011;62988;55.776;37.544;2023-03-16T08:43:59;17.67;;;9.18;;
74503;SDS011;62988;55.776;37.544;2023-03-16T08:46:24;15.15;;;9.63;;
74503;SDS011;62988;55.776;37.544;2023-03-16T08:48:49;15.43;;;10.30;;
74503;SDS011;62988;55.776;37.544;2023-03-16T08:51:16;16.50;;;10.30;;
74503;SDS011;62988;55.776;37.544;2023-03-16T08:53:42;17.77;;;10.82;;
74503;SDS011;62988;55.776;37.544;2023-03-16T08:56:09;17.30;;;10.77;;
74503;SDS011;62988;55.776;37.544;2023-03-16T08:58:36;17.70;;;9.60;;
74503;SDS011;62988;55.776;37.544;2023-03-16T09:01:03;20.17;;;10.77;;
74503;SDS011;62988;55.776;37.544;2023-03-16T09:03:30;21.70;;;10.57;;
74503;SDS011;62988;55.776;37.544;2023-03-16T09:06:02;21.55;;;11.23;;
74503;SDS011;62988;55.776;37.544;2023-03-16T09:08:28;16.58;;;9.43;;
74503;SDS011;62988;55.776;37.544;2023-03-16T09:10:58;19.00;;;10.25;;
74503;SDS011;62988;55.776;37.544;2023-03-16T09:13:24;16.67;;;9.98;;
74503;SDS011;62988;55.776;37.544;2023-03-16T09:15:49;20.50;;;11.50;;
74503;SDS011;62988;55.776;37.544;2023-03-16T09:18:15;23.90;;;12.67;;
74503;SDS011;62988;55.776;37.544;2023-03-16T09:20:42;21.60;;;12.73;;
74503;SDS011;62988;55.776;37.544;2023-03-16T09:23:07;21.63;;;11.50;;
74503;SDS011;62988;55.776;37.544;2023-03-16T09:25:33;19.37;;;10.53;;
74503;SDS011;62988;55.776;37.544;2023-03-16T09:27:58;21.50;;;11.15;;
74503;SDS011;62988;55.776;37.544;2023-03-16T09:30:25;21.13;;;10.82;;
74503;SDS011;62988;55.776;37.544;2023-03-16T09:32:50;17.58;;;11.57;;
74503;SDS011;62988;55.776;37.544;2023-03-16T09:35:16;17.95;;;11.27;;
74503;SDS011;62988;55.776;37.544;2023-03-16T09:37:41;19.48;;;11.35;;
74503;SDS011;62988;55.776;37.544;2023-03-16T09:40:12;21.77;;;11.25;;
74503;SDS011;62988;55.776;37.544;2023-03-16T09:48:11;20.40;;;11.27;;
74503;SDS011;62988;55.776;37.544;2023-03-16T09:50:38;17.90;;;10.80;;
74503;SDS011;62988;55.776;37.544;2023-03-16T09:55:33;22.38;;;12.45;;
74503;SDS011;62988;55.776;37.544;2023-03-16T09:57:59;20.52;;;10.90;;
74503;SDS011;62988;55.776;37.544;2023-03-16T10:05:42;22.90;;;11.45;;
74503;SDS011;62988;55.776;37.544;2023-03-16T10:13:15;18.75;;;10.60;;
74503;SDS011;62988;55.776;37.544;2023-03-16T10:15:41;17.98;;;9.68;;
74503;SDS011;62988;55.776;37.544;2023-03-16T10:18:20;20.13;;;10.65;;
74503;SDS011;62988;55.776;37.544;2023-03-16T10:20:47;21.27;;;11.43;;
74503;SDS011;62988;55.776;37.544;2023-03-16T10:23:17;20.92;;;10.68;;
74503;SDS011;62988;55.776;37.544;2023-03-16T10:25:51;26.10;;;10.98;;
74503;SDS011;62988;55.776;37.544;2023-03-16T10:28:18;18.90;;;10.80;;
74503;SDS011;62988;55.776;37.544;2023-03-16T10:30:43;18.02;;;11.30;;
74503;SDS011;62988;55.776;37.544;2023-03-16T10:33:28;20.70;;;10.68;;
74503;SDS011;62988;55.776;37.544;2023-03-16T10:41:18;15.48;;;10.38;;
74503;SDS011;62988;55.776;37.544;2023-03-16T10:43:50;17.15;;;10.63;;
74503;SDS011;62988;55.776;37.544;2023-03-16T10:46:15;20.98;;;10.90;;
74503;SDS011;62988;55.776;37.544;2023-03-16T10:48:41;18.00;;;10.30;;
74503;SDS011;62988;55.776;37.544;2023-03-16T10:51:14;22.02;;;10.60;;
74503;SDS011;62988;55.776;37.544;2023-03-16T10:53:42;21.35;;;11.27;;
74503;SDS011;62988;55.776;37.544;2023-03-16T10:56:17;18.15;;;10.82;;
74503;SDS011;62988;55.776;37.544;2023-03-16T10:58:44;17.63;;;9.93;;
74503;SDS011;62988;55.776;37.544;2023-03-16T11:01:11;20.00;;;10.35;;
74503;SDS011;62988;55.776;37.544;2023-03-16T11:03:41;20.10;;;10.88;;
74503;SDS011;62988;55.776;37.544;2023-03-16T11:06:14;20.90;;;10.25;;
74503;SDS011;62988;55.776;37.544;2023-03-16T11:08:42;25.67;;;11.77;;
74503;SDS011;62988;55.776;37.544;2023-03-16T11:11:13;19.98;;;11.13;;
74503;SDS011;62988;55.776;37.544;2023-03-16T11:13:44;22.65;;;11.02;;
74503;SDS011;62988;55.776;37.544;2023-03-16T11:18:50;18.58;;;11.30;;
74503;SDS011;62988;55.776;37.544;2023-03-16T11:21:21;22.45;;;11.27;;
74503;SDS011;62988;55.776;37.544;2023-03-16T11:23:51;22.20;;;10.13;;
74503;SDS011;62988;55.776;37.544;2023-03-16T11:26:31;19.27;;;10.05;;
74503;SDS011;62988;55.776;37.544;2023-03-16T11:29:04;21.42;;;10.75;;
74503;SDS011;62988;55.776;37.544;2023-03-16T11:34:17;19.15;;;10.23;;
74503;SDS011;62988;55.776;37.544;2023-03-16T11:42:13;19.50;;;11.43;;
74503;SDS011;62988;55.776;37.544;2023-03-16T11:52:18;33.03;;;16.17;;
74503;SDS011;62988;55.776;37.544;2023-03-16T11:57:41;27.58;;;15.82;;
74503;SDS011;62988;55.776;37.544;2023-03-16T12:10:56;33.17;;;16.60;;
74503;SDS011;62988;55.776;37.544;2023-03-16T12:13:16;28.70;;;16.48;;
74503;SDS011;62988;55.776;37.544;2023-03-16T12:15:44;36.88;;;18.25;;
74503;SDS011;62988;55.776;37.544;2023-03-16T12:18:22;32.20;;;18.77;;
74503;SDS011;62988;55.776;37.544;2023-03-16T12:20:54;35.72;;;19.20;;
74503;SDS011;62988;55.776;37.544;2023-03-16T12:23:41;34.67;;;17.55;;
74503;SDS011;62988;55.776;37.544;2023-03-16T12:26:08;32.47;;;17.35;;
74503;SDS011;62988;55.776;37.544;2023-03-16T12:28:33;28.67;;;16.13;;
74503;SDS011;62988;55.776;37.544;2023-03-16T12:33:49;27.42;;;14.52;;
74503;SDS011;62988;55.776;37.544;2023-03-16T12:36:24;32.67;;;16.05;;
74503;SDS011;62988;55.776;37.544;2023-03-16T12:49:06;28.42;;;15.55;;
74503;SDS011;62988;55.776;37.544;2023-03-16T12:51:36;26.27;;;14.50;;
74503;SDS011;62988;55.776;37.544;2023-03-16T12:54:01;23.70;;;13.77;;
74503;SDS011;62988;55.776;37.544;2023-03-16T12:56:29;28.88;;;14.02;;
74503;SDS011;62988;55.776;37.544;2023-03-16T12:58:56;32.70;;;15.50;;
74503;SDS011;62988;55.776;37.544;2023-03-16T13:01:25;29.25;;;14.10;;
74503;SDS011;62988;55.776;37.544;2023-03-16T13:03:58;25.77;;;13.18;;
74503;SDS011;62988;55.776;37.544;2023-03-16T13:06:24;22.13;;;12.50;;
74503;SDS011;62988;55.776;37.544;2023-03-16T13:08:56;24.55;;;13.15;;
74503;SDS011;62988;55.776;37.544;2023-03-16T13:11:25;23.50;;;12.02;;
74503;SDS011;62988;55.776;37.544;2023-03-16T13:13:52;24.73;;;13.05;;
74503;SDS011;62988;55.776;37.544;2023-03-16T13:16:30;22.15;;;12.43;;
74503;SDS011;62988;55.776;37.544;2023-03-16T13:18:56;23.83;;;12.95;;
74503;SDS011;62988;55.776;37.544;2023-03-16T13:24:11;29.50;;;13.43;;
74503;SDS011;62988;55.776;37.544;2023-03-16T13:26:45;27.52;;;13.57;;
74503;SDS011;62988;55.776;37.544;2023-03-16T13:29:22;24.67;;;13.38;;
74503;SDS011;62988;55.776;37.544;2023-03-16T13:31:48;25.20;;;12.77;;
74503;SDS011;62988;55.776;37.544;2023-03-16T13:34:14;25.25;;;12.88;;
74503;SDS011;62988;55.776;37.544;2023-03-16T13:36:43;20.85;;;12.43;;
74503;SDS011;62988;55.776;37.544;2023-03-16T13:39:16;24.58;;;13.20;;
74503;SDS011;62988;55.776;37.544;2023-03-16T13:41:53;24.50;;;13.23;;
74503;SDS011;62988;55.776;37.544;2023-03-16T13:44:18;21.85;;;11.13;;
74503;SDS011;62988;55.776;37.544;2023-03-16T13:46:46;21.95;;;13.45;;
74503;SDS011;62988;55.776;37.544;2023-03-16T13:49:13;24.92;;;13.05;;
74503;SDS011;62988;55.776;37.544;2023-03-16T13:51:39;22.83;;;12.95;;
74503;SDS011;62988;55.776;37.544;2023-03-16T13:54:39;24.13;;;13.88;;
74503;SDS011;62988;55.776;37.544;2023-03-16T13:56:58;27.05;;;12.55;;
74503;SDS011;62988;55.776;37.544;2023-03-16T13:59:24;29.60;;;14.05;;
74503;SDS011;62988;55.776;37.544;2023-03-16T14:01:54;24.33;;;13.95;;
74503;SDS011;62988;55.776;37.544;2023-03-16T14:04:22;23.90;;;12.18;;
74503;SDS011;62988;55.776;37.544;2023-03-16T14:06:52;25.02;;;13.13;;
74503;SDS011;62988;55.776;37.544;2023-03-16T14:09:20;23.95;;;13.63;;
74503;SDS011;62988;55.776;37.544;2023-03-16T14:11:46;23.45;;;13.23;;
74503;SDS011;62988;55.776;37.544;2023-03-16T14:14:13;33.30;;;14.07;;
74503;SDS011;62988;55.776;37.544;2023-03-16T14:16:39;23.52;;;12.52;;
74503;SDS011;62988;55.776;37.544;2023-03-16T14:19:07;21.73;;;13.20;;
74503;SDS011;62988;55.776;37.544;2023-03-16T14:21:36;23.65;;;11.68;;
74503;SDS011;62988;55.776;37.544;2023-03-16T14:24:23;20.52;;;11.27;;
74503;SDS011;62988;55.776;37.544;2023-03-16T14:26:50;23.23;;;10.30;;
74503;SDS011;62988;55.776;37.544;2023-03-16T14:29:26;20.23;;;12.15;;
74503;SDS011;62988;55.776;37.544;2023-03-16T14:34:19;19.17;;;10.75;;
74503;SDS011;62988;55.776;37.544;2023-03-16T14:36:46;20.38;;;10.60;;
74503;SDS011;62988;55.776;37.544;2023-03-16T14:39:12;22.65;;;12.65;;
74503;SDS011;62988;55.776;37.544;2023-03-16T14:41:38;24.48;;;11.70;;
74503;SDS011;62988;55.776;37.544;2023-03-16T14:44:04;21.05;;;11.77;;
74503;SDS011;62988;55.776;37.544;2023-03-16T14:48:59;18.80;;;10.82;;
74503;SDS011;62988;55.776;37.544;2023-03-16T14:51:24;22.80;;;9.88;;
74503;SDS011;62988;55.776;37.544;2023-03-16T14:53:50;20.75;;;11.32;;
74503;SDS011;62988;55.776;37.544;2023-03-16T14:56:15;18.83;;;10.27;;
74503;SDS011;62988;55.776;37.544;2023-03-16T14:58:41;20.35;;;10.10;;
74503;SDS011;62988;55.776;37.544;2023-03-16T15:01:08;19.63;;;11.10;;
74503;SDS011;62988;55.776;37.544;2023-03-16T15:03:37;19.52;;;10.10;;
74503;SDS011;62988;55.776;37.544;2023-03-16T15:06:03;17.80;;;10.05;;
74503;SDS011;62988;55.776;37.544;2023-03-16T15:08:30;17.02;;;9.00;;
74503;SDS011;62988;55.776;37.544;2023-03-16T15:10:57;15.13;;;7.85;;
74503;SDS011;62988;55.776;37.544;2023-03-16T15:13:25;14.48;;;8.18;;
74503;SDS011;62988;55.776;37.544;2023-03-16T15:16:06;14.20;;;8.23;;
74503;SDS011;62988;55.776;37.544;2023-03-16T15:18:32;15.32;;;8.30;;
74503;SDS011;62988;55.776;37.544;2023-03-16T15:20:58;14.93;;;8.30;;
74503;SDS011;62988;55.776;37.544;2023-03-16T15:23:24;13.75;;;7.82;;
74503;SDS011;62988;55.776;37.544;2023-03-16T15:25:50;15.75;;;8.32;;
74503;SDS011;62988;55.776;37.544;2023-03-16T15:28:17;14.32;;;7.82;;
74503;SDS011;62988;55.776;37.544;2023-03-16T15:30:43;15.80;;;8.02;;
74503;SDS011;62988;55.776;37.544;2023-03-16T15:33:10;17.55;;;9.38;;
74503;SDS011;62988;55.776;37.544;2023-03-16T15:35:36;14.63;;;8.38;;
74503;SDS011;62988;55.776;37.544;2023-03-16T15:38:03;16.42;;;9.15;;